Time;durP1;ratioP1;P1;durP2;ratioP2;P2;SDS_P1;SDS_P2;PMS_P1;PMS_P2;Temp;Humidity;BMP_temperature;BMP_pressure;BME280_temperature;BME280_humidity;BME280_pressure;Samples;Min_cycle;Max_cycle;Signal;HPM_P1;HPM_P2
2022/09/01 00:01:42;;;;;;;1.60;0.60;;;;;;;14.72;51.45;101720.56;5010964;28;20050;-68
2022/09/01 00:04:12;;;;;;;2.92;0.80;;;;;;;14.77;51.12;101729.03;5011087;28;20038;-68
2022/09/01 00:06:39;;;;;;;2.15;0.85;;;;;;;14.87;50.61;101728.03;5011422;28;20050;-68
2022/09/01 00:09:10;;;;;;;6.25;1.10;;;;;;;14.83;50.48;101718.56;5018216;28;20069;-68
2022/09/01 00:11:38;;;;;;;3.28;1.13;;;;;;;14.64;50.79;101719.66;5017648;28;20457;-68
2022/09/01 00:14:06;;;;;;;17.27;1.25;;;;;;;14.89;50.32;101724.16;5018420;28;20049;-68
2022/09/01 00:16:53;;;;;;;2.90;1.17;;;;;;;14.91;50.01;101721.28;5017908;28;20044;-68
2022/09/01 00:19:21;;;;;;;4.72;0.77;;;;;;;14.73;49.93;101718.69;5017690;28;20132;-68
2022/09/01 00:21:48;;;;;;;3.97;0.70;;;;;;;14.81;49.90;101726.84;5018274;28;20430;-68
2022/09/01 00:24:17;;;;;;;2.20;1.00;;;;;;;14.93;49.82;101727.38;5017992;28;20463;-68
2022/09/01 00:26:44;;;;;;;2.20;0.80;;;;;;;14.73;49.85;101726.81;5017786;28;20041;-68
2022/09/01 00:29:11;;;;;;;4.38;0.60;;;;;;;14.97;49.51;101726.03;5016923;28;20156;-68
2022/09/01 00:31:38;;;;;;;3.58;0.90;;;;;;;14.77;49.46;101718.22;5032298;28;20538;-68
2022/09/01 00:34:04;;;;;;;5.05;1.02;;;;;;;14.94;48.98;101729.91;5018420;28;20066;-68
2022/09/01 00:36:31;;;;;;;1.20;0.77;;;;;;;15.05;48.64;101717.09;5017012;28;20128;-68
2022/09/01 00:38:57;;;;;;;2.63;1.00;;;;;;;15.03;48.07;101719.16;5017797;28;20136;-68
2022/09/01 00:41:28;;;;;;;1.88;1.02;;;;;;;14.72;48.15;101722.41;5016927;28;20060;-68
2022/09/01 00:44:01;;;;;;;1.38;0.80;;;;;;;14.82;47.96;101720.44;5017702;28;20054;-68
2022/09/01 00:46:32;;;;;;;3.25;1.10;;;;;;;15.15;47.10;101713.25;5011675;28;20465;-68
2022/09/01 00:49:08;;;;;;;2.80;0.70;;;;;;;15.16;47.05;101717.66;5017333;28;20478;-68
2022/09/01 00:51:37;;;;;;;1.20;0.80;;;;;;;14.81;47.39;101717.88;5017426;28;20042;-68
2022/09/01 00:54:07;;;;;;;2.25;0.90;;;;;;;14.60;47.76;101721.84;5018160;28;20053;-68
2022/09/01 00:56:38;;;;;;;2.92;0.90;;;;;;;14.73;47.68;101719.53;5017214;28;20392;-68
2022/09/01 00:59:06;;;;;;;3.65;1.00;;;;;;;14.80;47.61;101716.19;5017534;28;20121;-68
2022/09/01 01:01:35;;;;;;;2.05;0.70;;;;;;;15.10;47.14;101710.19;5023351;28;20132;-68
2022/09/01 01:04:04;;;;;;;1.13;0.70;;;;;;;14.81;47.71;101710.66;5017025;28;20113;-68
2022/09/01 01:07:26;;;;;;;1.05;0.65;;;;;;;14.74;47.95;101712.31;4999469;28;20045;-68
2022/09/01 01:09:52;;;;;;;2.78;0.73;;;;;;;14.87;47.95;101709.97;5016003;28;20092;-68
2022/09/01 01:12:19;;;;;;;0.95;0.80;;;;;;;14.85;47.83;101708.47;5015682;28;20073;-68
2022/09/01 01:14:51;;;;;;;4.18;0.93;;;;;;;14.82;47.93;101706.94;5016696;28;20458;-68
2022/09/01 01:17:21;;;;;;;;;;;;;;;14.88;47.90;101705.44;5016328;28;20057;-69
2022/09/01 01:25:26;;;;;;;2.67;0.85;;;;;;;14.73;48.54;101707.91;5009091;28;20053;-68
2022/09/01 01:28:08;;;;;;;2.67;0.85;;;;;;;14.68;48.92;101713.78;5013228;28;20105;-68
2022/09/01 01:30:38;;;;;;;3.42;0.75;;;;;;;14.54;49.07;101707.13;5013171;28;20046;-68
2022/09/01 01:33:05;;;;;;;2.70;0.88;;;;;;;14.50;49.17;101719.28;5013835;28;20041;-68
2022/09/01 01:35:33;;;;;;;2.40;0.80;;;;;;;14.39;49.68;101710.59;5015772;28;20041;-68
2022/09/01 01:38:06;;;;;;;2.15;0.90;;;;;;;14.51;49.47;101712.00;5017682;28;20068;-68
2022/09/01 01:40:34;;;;;;;3.15;1.10;;;;;;;14.38;49.83;101708.91;5012998;28;20050;-69
2022/09/01 01:43:01;;;;;;;2.38;0.70;;;;;;;14.59;49.79;101711.19;5006673;28;20128;-68
2022/09/01 01:45:28;;;;;;;2.75;0.90;;;;;;;14.34;50.22;101707.53;5013829;28;20073;-68
2022/09/01 01:47:55;;;;;;;1.20;0.70;;;;;;;14.37;50.65;101707.22;5013215;28;20072;-68
2022/09/01 01:50:34;;;;;;;2.78;0.77;;;;;;;14.33;50.91;101708.56;5013481;28;20081;-68
2022/09/01 01:53:04;;;;;;;3.95;0.68;;;;;;;14.37;50.96;101712.63;5013133;28;20045;-68
2022/09/01 01:55:37;;;;;;;4.05;0.77;;;;;;;14.24;51.71;101711.19;5013059;28;20398;-68
2022/09/01 01:58:04;;;;;;;2.28;1.00;;;;;;;14.28;51.70;101703.63;5012541;28;20149;-68
2022/09/01 02:00:33;;;;;;;1.85;0.60;;;;;;;14.33;52.04;101709.41;5012883;28;20073;-68
2022/09/01 02:03:00;;;;;;;3.50;0.80;;;;;;;14.16;52.71;101703.06;5012838;28;20046;-68
2022/09/01 02:05:30;;;;;;;0.93;0.63;;;;;;;14.27;52.48;101700.06;5004203;28;20133;-68
2022/09/01 02:08:06;;;;;;;4.35;0.73;;;;;;;14.24;52.63;101708.50;5013359;28;20042;-68
2022/09/01 02:10:40;;;;;;;2.33;0.88;;;;;;;14.32;52.67;101699.59;5012622;28;20052;-68
2022/09/01 02:13:14;;;;;;;2.33;0.68;;;;;;;14.22;52.81;101698.84;5003596;28;20049;-68
2022/09/01 02:15:45;;;;;;;4.53;0.80;;;;;;;14.06;53.56;101705.03;5008265;28;20042;-68
2022/09/01 02:18:22;;;;;;;3.28;0.88;;;;;;;14.14;53.35;101706.91;5012517;28;20077;-68
2022/09/01 02:20:51;;;;;;;3.83;0.77;;;;;;;14.05;53.79;101704.19;5012385;28;20068;-68
2022/09/01 02:23:22;;;;;;;1.17;0.73;;;;;;;14.16;53.57;101703.06;5012136;28;20141;-68
2022/09/01 02:25:52;;;;;;;2.57;0.83;;;;;;;14.08;53.74;101700.31;5012427;28;20095;-68
2022/09/01 02:28:41;;;;;;;1.77;0.68;;;;;;;14.02;53.83;101691.00;5011748;28;20478;-68
2022/09/01 02:31:10;;;;;;;2.40;0.63;;;;;;;14.02;54.15;101695.56;5012225;28;20045;-68
2022/09/01 02:33:38;;;;;;;2.45;0.70;;;;;;;14.02;54.13;101709.06;5012834;28;20489;-68
2022/09/01 02:36:09;;;;;;;1.30;0.50;;;;;;;14.04;54.01;101698.94;5012062;28;20105;-68
2022/09/01 02:38:43;;;;;;;2.88;0.90;;;;;;;14.07;54.19;101695.91;5011634;28;20129;-68
2022/09/01 02:41:13;;;;;;;2.80;0.80;;;;;;;14.10;54.01;101692.91;5010926;28;20054;-68
2022/09/01 02:43:42;;;;;;;3.42;1.10;;;;;;;13.97;54.37;101704.09;5011978;28;20053;-68
2022/09/01 02:46:09;;;;;;;2.35;1.00;;;;;;;13.98;54.69;101695.03;5012547;28;20045;-68
2022/09/01 02:48:40;;;;;;;2.08;1.02;;;;;;;13.96;54.74;101690.78;5012128;28;20386;-68
2022/09/01 02:51:09;;;;;;;5.63;1.00;;;;;;;13.88;55.08;101693.44;5011789;28;20046;-68
2022/09/01 02:53:38;;;;;;;3.00;0.95;;;;;;;13.91;55.19;101698.50;5011670;28;20052;-68
2022/09/01 02:56:10;;;;;;;2.08;0.95;;;;;;;13.86;55.52;101693.59;5010981;28;20077;-68
2022/09/01 02:58:56;;;;;;;3.08;1.45;;;;;;;13.74;55.95;101695.69;5011811;28;20073;-68
2022/09/01 03:01:28;;;;;;;5.03;1.10;;;;;;;13.72;56.14;101692.28;5011398;28;20069;-68
2022/09/01 03:04:01;;;;;;;3.28;0.80;;;;;;;13.90;55.64;101697.66;5012057;28;20105;-68
2022/09/01 03:06:32;;;;;;;2.78;0.90;;;;;;;13.84;55.79;101692.91;5011861;28;20046;-68
2022/09/01 03:09:00;;;;;;;3.50;1.10;;;;;;;13.75;56.35;101696.53;5012275;28;20080;-68
2022/09/01 03:11:29;;;;;;;3.20;0.90;;;;;;;13.72;56.31;101691.44;5011607;28;20069;-68
2022/09/01 03:13:57;;;;;;;1.95;0.90;;;;;;;13.79;56.13;101697.94;5010225;28;20070;-68
2022/09/01 03:16:23;;;;;;;4.63;0.98;;;;;;;13.81;56.01;101696.78;5010032;28;20054;-68
2022/09/01 03:18:51;;;;;;;3.17;1.20;;;;;;;13.76;56.19;101696.38;5011448;28;20053;-68
2022/09/01 03:21:19;;;;;;;4.38;0.68;;;;;;;13.71;56.46;101690.59;5011490;28;20053;-68
2022/09/01 03:23:48;;;;;;;3.67;1.35;;;;;;;13.64;56.45;101691.38;5016653;28;20069;-68
2022/09/01 03:26:17;;;;;;;1.92;0.90;;;;;;;13.61;56.57;101695.22;5011270;28;20132;-68
2022/09/01 03:28:44;;;;;;;7.53;1.30;;;;;;;13.68;56.60;101692.75;5007176;28;20053;-68
2022/09/01 03:31:11;;;;;;;5.50;1.27;;;;;;;13.59;56.68;101690.00;5009419;28;20084;-68
2022/09/01 03:33:38;;;;;;;3.00;1.10;;;;;;;13.58;56.73;101682.91;5010487;28;20133;-68
2022/09/01 03:36:05;;;;;;;2.22;0.98;;;;;;;13.44;57.33;101686.16;5011657;28;20556;-68
2022/09/01 03:38:42;;;;;;;4.65;1.25;;;;;;;13.49;56.93;101685.69;5010386;28;20050;-68
2022/09/01 03:41:11;;;;;;;2.83;0.95;;;;;;;13.47;57.22;101687.72;5011121;28;20100;-68
2022/09/01 03:43:39;;;;;;;2.03;1.30;;;;;;;13.47;57.21;101685.84;5010774;28;20080;-68
2022/09/01 03:46:20;;;;;;;2.72;0.80;;;;;;;13.27;57.97;101692.41;5010169;28;21678;-68
2022/09/01 03:48:57;;;;;;;2.45;1.00;;;;;;;13.37;57.58;101686.94;4991030;28;20055;-68
2022/09/01 03:51:27;;;;;;;6.43;1.10;;;;;;;13.42;57.61;101685.47;4991109;28;20047;-68
2022/09/01 03:53:54;;;;;;;6.97;1.10;;;;;;;13.37;57.84;101686.94;4990529;28;20121;-68
2022/09/01 03:56:24;;;;;;;3.42;1.08;;;;;;;13.39;57.77;101683.09;4991582;28;20051;-68
2022/09/01 03:58:53;;;;;;;6.28;1.40;;;;;;;13.39;57.72;101687.63;4991124;28;20461;-68
2022/09/01 04:01:20;;;;;;;6.40;1.10;;;;;;;13.38;57.54;101689.47;4991673;28;20085;-68
2022/09/01 04:03:47;;;;;;;3.17;1.23;;;;;;;13.27;58.15;101682.47;4995327;28;20048;-68
2022/09/01 04:06:18;;;;;;;6.07;0.95;;;;;;;13.30;57.97;101682.16;5010921;28;20425;-68
2022/09/01 04:08:46;;;;;;;5.68;1.20;;;;;;;13.35;57.84;101679.00;5011796;28;20050;-68
2022/09/01 04:11:17;;;;;;;4.30;1.10;;;;;;;13.30;58.07;101676.78;5010783;28;20042;-68
2022/09/01 04:13:46;;;;;;;2.90;0.98;;;;;;;13.31;58.04;101673.06;4993249;28;20046;-68
2022/09/01 04:19:18;;;;;;;2.78;1.10;;;;;;;13.17;58.47;101681.69;5008977;28;20050;-68
2022/09/01 04:21:49;;;;;;;3.80;1.10;;;;;;;13.18;58.63;101669.94;5010026;28;20045;-68
2022/09/01 04:24:17;;;;;;;4.22;1.35;;;;;;;13.15;58.75;101675.63;4993246;28;20401;-68
2022/09/01 04:26:47;;;;;;;4.18;1.35;;;;;;;13.16;58.65;101677.31;5009582;28;20045;-68
2022/09/01 04:29:26;;;;;;;6.43;1.33;;;;;;;13.20;58.52;101680.56;5010075;28;20046;-68
2022/09/01 04:32:02;;;;;;;4.13;1.27;;;;;;;13.03;59.14;101688.47;5010539;28;20050;-68
2022/09/01 04:34:36;;;;;;;4.00;1.42;;;;;;;13.11;58.85;101687.69;5010398;28;20042;-68
2022/09/01 04:37:22;;;;;;;3.88;1.10;;;;;;;13.01;59.34;101682.41;5009347;28;20120;-68
2022/09/01 04:39:52;;;;;;;4.38;1.30;;;;;;;13.01;59.18;101687.78;5025766;28;20059;-68
2022/09/01 04:42:25;;;;;;;7.35;1.35;;;;;;;13.00;59.51;101687.94;5029110;28;20049;-68
2022/09/01 04:44:53;;;;;;;7.40;1.40;;;;;;;13.06;59.21;101690.03;5026187;28;20405;-68
2022/09/01 04:47:28;;;;;;;4.05;1.75;;;;;;;13.06;59.32;101690.03;5022080;28;20042;-68
2022/09/01 04:50:03;;;;;;;5.10;1.52;;;;;;;13.02;59.38;101694.03;5017580;28;20045;-68
2022/09/01 04:52:30;;;;;;;4.93;1.80;;;;;;;12.98;59.55;101692.63;5010585;28;20049;-68
2022/09/01 04:54:57;;;;;;;3.67;1.58;;;;;;;12.94;59.61;101691.22;5027397;28;20049;-68
2022/09/01 04:57:26;;;;;;;5.53;1.50;;;;;;;13.02;59.54;101688.63;5020070;28;20529;-68
2022/09/01 04:59:55;;;;;;;5.32;1.55;;;;;;;13.13;59.21;101690.25;5025092;28;20046;-68
2022/09/01 05:02:25;;;;;;;8.25;1.42;;;;;;;13.04;59.49;101687.50;5029666;28;20045;-68
2022/09/01 05:04:53;;;;;;;8.25;1.80;;;;;;;12.97;59.56;101689.09;5013646;28;20052;-68
2022/09/01 05:07:20;;;;;;;2.95;1.50;;;;;;;12.96;59.59;101689.25;5019250;28;20080;-68
2022/09/01 05:09:46;;;;;;;6.18;1.40;;;;;;;13.03;59.61;101690.31;5020064;28;20136;-68
2022/09/01 05:12:14;;;;;;;6.25;1.55;;;;;;;13.01;59.68;101695.88;5027267;28;20120;-68
2022/09/01 05:14:47;;;;;;;5.43;1.70;;;;;;;12.96;59.92;101689.25;5021200;28;20056;-68
2022/09/01 05:17:16;;;;;;;5.70;1.50;;;;;;;13.02;59.55;101699.41;5026706;28;20054;-68
2022/09/01 05:19:46;;;;;;;7.22;1.77;;;;;;;13.07;59.34;101702.47;5013440;28;20054;-68
2022/09/01 05:22:14;;;;;;;8.55;1.70;;;;;;;13.10;59.68;101694.09;5013401;28;20048;-68
2022/09/01 05:24:41;;;;;;;7.15;2.10;;;;;;;13.11;59.20;101693.09;5023124;28;20176;-68
2022/09/01 05:27:09;;;;;;;8.57;1.63;;;;;;;13.19;58.69;101686.97;5018202;28;20077;-68
2022/09/01 05:29:37;;;;;;;8.73;1.70;;;;;;;13.17;58.83;101688.94;5030383;28;20220;-68
2022/09/01 05:32:08;;;;;;;6.63;2.17;;;;;;;13.19;58.79;101690.50;5021913;28;20065;-68
2022/09/01 05:34:37;;;;;;;19.42;2.35;;;;;;;13.20;58.67;101696.72;5022364;28;20501;-68
2022/09/01 05:37:07;;;;;;;10.55;2.63;;;;;;;13.23;58.67;101697.25;5032358;28;20131;-68
2022/09/01 05:39:36;;;;;;;6.80;1.92;;;;;;;13.24;58.31;101696.25;4999409;28;20475;-68
2022/09/01 05:42:04;;;;;;;3.80;1.40;;;;;;;13.31;57.87;101699.19;5019696;28;20049;-68
2022/09/01 05:44:31;;;;;;;5.18;1.42;;;;;;;13.30;58.16;101695.66;5032108;28;20049;-68
2022/09/01 05:46:58;;;;;;;3.22;1.55;;;;;;;13.39;57.80;101701.97;5033726;28;20077;-68
2022/09/01 05:49:27;;;;;;;4.07;1.58;;;;;;;13.39;57.86;101701.09;5027261;28;20038;-68
2022/09/01 05:51:57;;;;;;;10.38;1.70;;;;;;;13.45;57.58;101695.94;5012865;28;20073;-68
2022/09/01 05:54:26;;;;;;;4.88;1.60;;;;;;;13.42;57.61;101706.19;5020494;28;20049;-68
2022/09/01 05:56:57;;;;;;;9.80;1.58;;;;;;;13.53;57.34;101697.88;5012408;28;20050;-68
2022/09/01 05:59:45;;;;;;;5.35;1.30;;;;;;;13.59;57.15;101697.22;5011888;28;20046;-68
2022/09/01 06:02:12;;;;;;;4.95;1.80;;;;;;;13.48;57.23;101695.63;5012277;28;20073;-68
2022/09/01 06:04:42;;;;;;;9.48;2.08;;;;;;;13.51;57.06;101692.63;5022040;28;20064;-68
2022/09/01 06:07:13;;;;;;;6.28;1.40;;;;;;;13.39;57.47;101693.00;5010889;28;20065;-68
2022/09/01 06:09:45;;;;;;;3.83;1.38;;;;;;;13.58;57.09;101704.47;5023774;28;20060;-69
2022/09/01 06:12:16;;;;;;;10.00;1.83;;;;;;;13.63;56.71;101704.03;5017866;28;20129;-68
2022/09/01 06:14:45;;;;;;;7.07;1.60;;;;;;;13.56;56.55;101703.81;5032487;28;20045;-68
2022/09/01 06:17:15;;;;;;;4.75;1.80;;;;;;;13.64;56.36;101708.41;5020563;28;20084;-68
2022/09/01 06:19:42;;;;;;;7.90;1.42;;;;;;;13.67;56.10;101704.56;5017126;28;20042;-68
2022/09/01 06:22:09;;;;;;;10.45;1.65;;;;;;;13.82;55.83;101713.78;5027541;28;20136;-68
2022/09/01 06:24:38;;;;;;;5.78;1.38;;;;;;;14.03;55.32;101708.03;5021310;28;20404;-68
2022/09/01 06:27:11;;;;;;;4.88;1.60;;;;;;;14.18;54.81;101709.13;5012851;28;20050;-68
2022/09/01 06:29:41;;;;;;;7.28;1.35;;;;;;;14.32;54.53;101709.53;5012572;28;20561;-68
2022/09/01 06:32:09;;;;;;;6.07;1.80;;;;;;;14.57;53.81;101719.47;5015423;28;20068;-68
2022/09/01 06:34:39;;;;;;;4.30;1.80;;;;;;;14.84;53.01;101715.69;5029536;28;20081;-68
2022/09/01 06:37:05;;;;;;;5.40;1.58;;;;;;;14.75;52.86;101722.94;5001141;28;20089;-68
2022/09/01 06:39:33;;;;;;;6.47;1.40;;;;;;;14.63;52.93;101715.25;5023203;28;20108;-68
2022/09/01 06:42:01;;;;;;;5.50;1.10;;;;;;;14.48;53.16;101709.63;5023586;28;20096;-68
2022/09/01 06:44:31;;;;;;;;;;;;;;;14.73;52.42;101714.13;5024788;28;20073;-71
2022/09/01 06:47:01;;;;;;;4.30;1.30;;;;;;;14.68;52.69;101716.47;5014952;28;19921;-71
2022/09/01 06:49:34;;;;;;;4.57;1.13;;;;;;;15.11;51.60;101714.59;5020079;28;20051;-71
2022/09/01 06:52:03;;;;;;;6.25;1.70;;;;;;;15.40;50.92;101722.25;5018872;28;20073;-71
2022/09/01 06:54:34;;;;;;;4.55;1.27;;;;;;;15.71;50.14;101722.47;5012451;28;20052;-71
2022/09/01 06:57:02;;;;;;;6.80;1.20;;;;;;;15.82;49.47;101725.84;5012260;28;20117;-71
2022/09/01 06:59:50;;;;;;;4.30;1.00;;;;;;;15.53;49.96;101716.31;4982814;28;20048;-70
2022/09/01 07:02:18;;;;;;;2.40;1.00;;;;;;;15.80;49.40;101722.44;5027399;28;20061;-70
2022/09/01 07:04:50;;;;;;;2.40;0.95;;;;;;;15.89;48.63;101711.44;5012386;28;20057;-70
2022/09/01 07:07:17;;;;;;;3.80;1.08;;;;;;;16.62;47.21;101726.66;5012589;28;20141;-70
2022/09/01 07:10:04;;;;;;;4.72;1.15;;;;;;;16.25;47.56;101726.41;5030588;28;20115;-70
2022/09/01 07:12:45;;;;;;;3.47;1.50;;;;;;;16.66;46.87;101724.44;5030862;28;20539;-71
2022/09/01 07:15:31;;;;;;;3.65;1.27;;;;;;;17.17;45.73;101724.03;5022022;28;20053;-71
2022/09/01 07:18:20;;;;;;;5.88;0.88;;;;;;;17.63;44.54;101732.19;5009551;28;20048;-71
2022/09/01 07:20:47;;;;;;;3.03;0.90;;;;;;;18.14;43.27;101735.94;5009659;28;20113;-71
2022/09/01 07:23:37;;;;;;;6.13;0.98;;;;;;;18.79;41.39;101735.22;5010606;28;20052;-71
2022/09/01 07:26:24;;;;;;;3.13;0.85;;;;;;;18.43;41.54;101731.56;5008747;28;20060;-72
2022/09/01 07:28:52;;;;;;;4.88;1.10;;;;;;;18.44;41.49;101725.94;5011939;28;20046;-72
2022/09/01 07:31:42;;;;;;;2.10;0.80;;;;;;;18.08;41.70;101737.50;5010056;28;20037;-71
2022/09/01 07:34:29;;;;;;;4.97;1.20;;;;;;;18.20;42.10;101731.66;5026666;28;20137;-72
2022/09/01 07:37:04;;;;;;;2.65;0.80;;;;;;;19.16;40.33;101729.78;5030169;28;20128;-72
2022/09/01 07:39:51;;;;;;;5.93;1.40;;;;;;;19.63;38.85;101733.81;5030848;28;20045;-72
2022/09/01 07:42:20;;;;;;;2.47;1.05;;;;;;;19.39;38.77;101729.63;5030502;28;20080;-72
2022/09/01 07:45:09;;;;;;;2.38;0.88;;;;;;;20.20;37.18;101727.38;5030088;28;20041;-72
2022/09/01 07:47:52;;;;;;;5.35;1.17;;;;;;;20.56;36.44;101729.91;5031117;28;20052;-72
2022/09/01 07:50:19;;;;;;;2.58;0.93;;;;;;;20.86;36.26;101729.63;5030053;28;20140;-72
2022/09/01 07:53:07;;;;;;;2.83;1.08;;;;;;;21.16;35.53;101732.06;5029654;28;20040;-72
2022/09/01 07:55:40;;;;;;;4.07;1.10;;;;;;;21.46;35.26;101737.97;4998818;28;20038;-72
2022/09/01 07:58:07;;;;;;;4.80;0.90;;;;;;;21.33;34.73;101731.47;5020901;28;20397;-71
2022/09/01 08:00:34;;;;;;;4.20;1.10;;;;;;;21.61;34.83;101741.38;5008692;28;20045;-73
2022/09/01 08:03:00;;;;;;;7.38;1.20;;;;;;;21.61;33.61;101730.44;5023993;28;20478;-72
2022/09/01 08:05:27;;;;;;;1.67;0.60;;;;;;;20.89;34.92;101740.97;4995177;28;20058;-71
2022/09/01 08:07:54;;;;;;;3.20;1.20;;;;;;;21.49;34.03;101743.84;5011675;28;20049;-71
2022/09/01 08:10:21;;;;;;;4.68;1.00;;;;;;;20.71;34.60;101743.41;5027627;28;20140;-72
2022/09/01 08:12:48;;;;;;;1.60;0.80;;;;;;;20.85;34.37;101747.03;5028752;28;20473;-72
2022/09/01 08:15:22;;;;;;;4.13;1.10;;;;;;;21.02;33.76;101750.25;5028328;28;20128;-70
2022/09/01 08:18:09;;;;;;;3.80;0.98;;;;;;;20.82;34.62;101736.53;5023600;28;20046;-71
2022/09/01 08:20:43;;;;;;;3.00;0.90;;;;;;;21.17;34.37;101734.56;5026171;28;20038;-71
2022/09/01 08:23:12;;;;;;;3.10;0.82;;;;;;;20.91;34.34;101741.59;5013122;28;20105;-71
2022/09/01 08:25:41;;;;;;;3.70;0.90;;;;;;;20.52;35.37;101738.69;5027423;28;20132;-71
2022/09/01 08:28:08;;;;;;;1.67;0.90;;;;;;;21.43;34.58;101733.78;5025480;28;20125;-71
2022/09/01 08:30:38;;;;;;;4.18;0.90;;;;;;;21.73;33.90;101739.66;5025707;28;20443;-71
2022/09/01 08:33:05;;;;;;;4.07;0.73;;;;;;;21.43;33.80;101738.41;5021410;28;20405;-72
2022/09/01 08:35:45;;;;;;;3.20;0.80;;;;;;;21.74;32.83;101741.38;5016156;28;20046;-71
2022/09/01 08:38:12;;;;;;;4.15;0.90;;;;;;;21.39;32.87;101743.44;5016131;28;20050;-71
2022/09/01 08:40:41;;;;;;;2.45;0.90;;;;;;;21.07;32.49;101740.38;5024677;28;20570;-70
2022/09/01 08:43:36;;;;;;;3.30;1.00;;;;;;;21.59;33.09;101736.09;5014092;28;20117;-71
2022/09/01 08:46:36;;;;;;;2.75;0.90;;;;;;;20.73;33.12;101735.88;5033344;28;20105;-71
2022/09/01 08:49:11;;;;;;;3.47;0.80;;;;;;;21.89;31.25;101735.72;5027506;28;20053;-70
2022/09/01 08:52:06;;;;;;;3.72;1.48;;;;;;;22.79;31.25;101739.53;5033321;28;20050;-71
2022/09/01 08:54:44;;;;;;;3.65;1.10;;;;;;;22.92;30.62;101732.31;5016799;28;20072;-71
2022/09/01 08:57:20;;;;;;;2.90;0.88;;;;;;;22.81;29.49;101731.13;5014738;28;20070;-71
2022/09/01 08:59:47;;;;;;;5.43;0.70;;;;;;;23.08;29.56;101737.28;5013982;28;20046;-71
2022/09/01 09:02:52;;;;;;;6.03;0.70;;;;;;;22.86;29.44;101744.97;5014052;28;20449;-71
2022/09/01 09:05:41;;;;;;;2.78;0.98;;;;;;;23.49;28.53;101731.34;5004155;28;20085;-72
2022/09/01 09:08:19;;;;;;;4.07;0.75;;;;;;;23.53;28.13;101739.13;5014619;28;20096;-72
2022/09/01 09:10:59;;;;;;;3.35;0.70;;;;;;;21.93;32.76;101727.94;5023874;28;20065;-69
2022/09/01 09:13:44;;;;;;;3.85;0.80;;;;;;;22.18;31.17;101731.69;5021289;28;20069;-68
2022/09/01 09:16:20;;;;;;;1.50;0.63;;;;;;;22.65;31.05;101728.88;5032966;28;20198;-67
2022/09/01 09:19:16;;;;;;;1.67;0.63;;;;;;;22.63;30.76;101734.53;5016407;28;20050;-68
2022/09/01 09:21:47;;;;;;;1.73;0.70;;;;;;;21.84;31.04;101727.34;5013778;28;20105;-68
2022/09/01 09:24:16;;;;;;;3.80;0.90;;;;;;;21.32;31.24;101732.53;5014104;28;20065;-67
2022/09/01 09:26:53;;;;;;;1.10;0.60;;;;;;;20.85;32.36;101733.41;5025885;28;20046;-68
2022/09/01 09:29:21;;;;;;;3.58;0.82;;;;;;;21.40;30.63;101722.44;5033575;28;20133;-68
2022/09/01 09:32:02;;;;;;;3.25;0.70;;;;;;;21.64;30.57;101729.19;5033620;28;20052;-68
2022/09/01 09:34:36;;;;;;;4.65;0.93;;;;;;;22.24;30.72;101719.06;5014211;28;20057;-68
2022/09/01 09:37:26;;;;;;;4.93;1.13;;;;;;;21.57;31.99;101718.25;5017857;28;20128;-68
2022/09/01 09:40:16;;;;;;;1.05;0.77;;;;;;;21.28;32.84;101720.31;5031426;28;20124;-68
2022/09/01 09:42:55;;;;;;;4.53;0.80;;;;;;;21.30;32.81;101715.50;5016738;28;20064;-68
2022/09/01 09:45:38;;;;;;;3.55;1.00;;;;;;;22.40;30.51;101713.16;5012940;28;20132;-68
2022/09/01 09:48:26;;;;;;;3.70;1.02;;;;;;;22.17;31.11;101721.81;5012005;28;20473;-68
2022/09/01 09:50:54;;;;;;;1.08;0.63;;;;;;;22.78;30.68;101713.22;5014265;28;20053;-68
2022/09/01 09:53:26;;;;;;;5.88;1.00;;;;;;;23.23;29.75;101717.84;5019946;28;20136;-68
2022/09/01 09:55:57;;;;;;;3.10;0.90;;;;;;;23.85;29.38;101716.13;5024815;28;20073;-67
2022/09/01 09:58:33;;;;;;;1.33;0.70;;;;;;;21.51;31.49;101710.91;5029162;28;20128;-67
2022/09/01 10:01:24;;;;;;;5.13;0.73;;;;;;;21.17;32.93;101711.91;5026576;28;20481;-67
2022/09/01 10:03:55;;;;;;;5.63;0.60;;;;;;;20.31;34.19;101707.72;5008431;28;20054;-67
2022/09/01 10:06:44;;;;;;;3.92;1.00;;;;;;;21.65;32.79;101717.22;5013297;28;20046;-67
2022/09/01 10:09:23;;;;;;;2.22;0.90;;;;;;;21.88;31.71;101714.09;5027819;28;20386;-67
2022/09/01 10:11:57;;;;;;;1.52;0.60;;;;;;;22.42;30.59;101718.38;5032926;28;20128;-68
2022/09/01 10:14:28;;;;;;;1.92;1.20;;;;;;;22.78;30.14;101718.69;5032436;28;20462;-68
2022/09/01 10:17:24;;;;;;;2.10;0.85;;;;;;;22.09;31.23;101709.22;5026071;28;20045;-68
2022/09/01 10:19:57;;;;;;;3.10;0.57;;;;;;;21.38;32.17;101707.09;5032150;28;20128;-68
2022/09/01 10:22:24;;;;;;;4.38;0.70;;;;;;;20.95;32.99;101703.00;5031607;28;20420;-68
2022/09/01 10:24:51;;;;;;;2.00;0.93;;;;;;;20.09;34.18;101708.84;5027288;28;20109;-67
2022/09/01 10:27:28;;;;;;;2.15;1.00;;;;;;;19.84;35.03;101711.19;5012159;28;20430;-68
2022/09/01 10:30:15;;;;;;;1.30;0.57;;;;;;;20.54;34.08;101707.47;5012533;28;20080;-66
2022/09/01 10:32:50;;;;;;;2.30;0.98;;;;;;;20.38;33.78;101705.03;5012108;28;20046;-67
2022/09/01 10:35:28;;;;;;;1.00;0.70;;;;;;;20.37;33.17;101701.47;5012696;28;20508;-68
2022/09/01 10:37:57;;;;;;;2.20;0.52;;;;;;;21.05;33.25;101700.72;5012693;28;20042;-68
2022/09/01 10:40:27;;;;;;;2.65;0.50;;;;;;;21.34;32.19;101705.84;5011751;28;20064;-68
2022/09/01 10:43:00;;;;;;;12.13;0.77;;;;;;;21.80;31.54;101699.56;5012249;28;20073;-67
2022/09/01 10:45:36;;;;;;;2.42;0.80;;;;;;;22.22;30.86;101702.91;5011366;28;20146;-68
2022/09/01 10:48:19;;;;;;;1.40;0.73;;;;;;;21.54;30.86;101700.41;5013212;28;20103;-68
2022/09/01 10:51:11;;;;;;;0.68;0.50;;;;;;;21.45;30.31;101703.53;5016915;28;20400;-68
2022/09/01 10:53:48;;;;;;;2.03;0.70;;;;;;;21.72;29.71;101698.94;5011748;28;20105;-67
2022/09/01 10:56:37;;;;;;;3.08;0.57;;;;;;;20.47;31.85;101697.56;5016026;28;20057;-66
2022/09/01 10:59:28;;;;;;;3.08;0.90;;;;;;;20.47;32.04;101690.25;5031333;28;20458;-67
2022/09/01 11:02:09;;;;;;;4.22;0.70;;;;;;;20.46;32.01;101688.56;5031250;28;20041;-68
2022/09/01 11:04:58;;;;;;;2.45;0.77;;;;;;;20.30;32.77;101689.69;5025180;28;20478;-68
2022/09/01 11:07:32;;;;;;;3.40;0.80;;;;;;;19.51;33.37;101692.66;5011484;28;20050;-66
2022/09/01 11:10:18;;;;;;;5.50;0.70;;;;;;;19.14;33.60;101696.47;5011079;28;20050;-66
2022/09/01 11:13:29;;;;;;;3.22;0.60;;;;;;;19.28;33.39;101695.59;5014387;28;20046;-66
2022/09/01 11:16:36;;;;;;;4.65;0.70;;;;;;;19.84;33.25;101692.97;5027638;28;20500;-67
2022/09/01 11:19:42;;;;;;;2.08;0.95;;;;;;;20.14;32.30;101685.44;5010238;28;20054;-67
2022/09/01 11:22:20;;;;;;;1.98;0.68;;;;;;;20.40;32.19;101690.19;5031079;28;20057;-67
2022/09/01 11:25:12;;;;;;;4.70;0.75;;;;;;;20.56;31.88;101690.88;5029966;28;20473;-67
2022/09/01 11:27:48;;;;;;;3.55;0.80;;;;;;;21.40;30.75;101684.22;5025637;28;20104;-67
2022/09/01 11:30:18;;;;;;;1.38;0.77;;;;;;;22.06;29.12;101681.47;5014743;28;20573;-66
2022/09/01 11:32:49;;;;;;;5.32;0.90;;;;;;;23.50;27.65;101681.00;5011746;28;20050;-67
2022/09/01 11:35:21;;;;;;;2.05;0.60;;;;;;;23.46;27.83;101674.28;5011415;28;20132;-67
2022/09/01 11:37:49;;;;;;;3.58;0.85;;;;;;;21.84;28.65;101687.19;5010040;28;20129;-68
2022/09/01 11:40:26;;;;;;;4.95;0.90;;;;;;;21.37;29.60;101686.31;5011228;28;20104;-68
2022/09/01 11:43:04;;;;;;;2.97;0.60;;;;;;;20.97;29.95;101690.00;5010681;28;20478;-67
2022/09/01 11:45:35;;;;;;;1.58;0.70;;;;;;;20.74;30.88;101688.47;5011860;28;20045;-66
2022/09/01 11:48:08;;;;;;;1.53;0.47;;;;;;;20.54;31.39;101684.81;5031301;28;20531;-68
2022/09/01 11:50:37;;;;;;;2.10;0.90;;;;;;;19.77;32.64;101686.63;5030596;28;20323;-66
2022/09/01 11:53:08;;;;;;;2.55;0.82;;;;;;;19.45;33.00;101685.28;5030061;28;20072;-68
2022/09/01 11:55:44;;;;;;;3.53;0.93;;;;;;;19.73;32.87;101677.19;5030231;28;20493;-66
2022/09/01 11:58:27;;;;;;;2.05;0.75;;;;;;;20.10;32.93;101678.69;5030505;28;20438;-66
2022/09/01 12:00:56;;;;;;;3.08;0.77;;;;;;;20.35;32.59;101681.78;5030048;28;20037;-66
2022/09/01 12:03:28;;;;;;;7.93;1.00;;;;;;;20.49;31.20;101677.25;5030192;28;20429;-66